Time;durP1;ratioP1;P1;durP2;ratioP2;P2;SDS_P1;SDS_P2;PMS_P1;PMS_P2;Temp;Humidity;BMP_temperature;BMP_pressure;BME280_temperature;BME280_humidity;BME280_pressure;Samples;Min_cycle;Max_cycle;Signal;HPM_P1;HPM_P2
2021/09/23 00:00:18;;;;;;;19.30;14.80;;;9.20;99.90;;;;;;5065072;28;20657;-70
2021/09/23 00:05:19;;;;;;;20.80;14.80;;;9.10;99.90;;;;;;5064814;28;20178;-69
2021/09/23 00:07:49;;;;;;;19.43;14.70;;;9.10;99.90;;;;;;5065271;28;20603;-70
2021/09/23 00:10:28;;;;;;;19.30;14.53;;;9.00;99.90;;;;;;5064826;28;20209;-70
2021/09/23 00:12:55;;;;;;;22.27;15.27;;;9.00;99.90;;;;;;5064589;28;20632;-69
2021/09/23 00:15:21;;;;;;;19.87;14.23;;;9.00;99.90;;;;;;5064597;28;20190;-69
2021/09/23 00:17:51;;;;;;;21.30;14.93;;;9.00;99.90;;;;;;5064947;28;20193;-66
2021/09/23 00:20:29;;;;;;;20.20;14.83;;;9.00;99.90;;;;;;5064621;28;20815;-69
2021/09/23 00:22:55;;;;;;;21.83;15.40;;;9.00;99.90;;;;;;5063906;28;20197;-67
2021/09/23 00:25:21;;;;;;;25.17;16.90;;;9.00;99.90;;;;;;5064721;28;20193;-69
2021/09/23 00:27:47;;;;;;;25.23;17.53;;;9.00;99.90;;;;;;5064747;28;20212;-67
2021/09/23 00:30:13;;;;;;;24.47;17.57;;;9.10;99.90;;;;;;5064761;28;20761;-69
2021/09/23 00:32:38;;;;;;;27.37;17.47;;;9.10;99.90;;;;;;5063896;28;20193;-71
2021/09/23 00:35:06;;;;;;;25.37;18.07;;;9.10;99.90;;;;;;5064792;28;20190;-69
2021/09/23 00:37:32;;;;;;;26.80;18.40;;;9.20;99.90;;;;;;5063570;28;20201;-65
2021/09/23 00:39:57;;;;;;;26.83;18.43;;;9.20;99.90;;;;;;5064168;28;20232;-68
2021/09/23 00:42:24;;;;;;;26.83;18.63;;;9.30;99.90;;;;;;5063118;28;20304;-68
2021/09/23 00:44:54;;;;;;;29.77;19.73;;;9.30;99.90;;;;;;5064335;28;20196;-69
2021/09/23 00:47:20;;;;;;;28.20;19.20;;;9.30;99.90;;;;;;5045731;28;20203;-70
2021/09/23 00:49:45;;;;;;;26.47;18.17;;;9.30;99.90;;;;;;5064298;28;20224;-69
2021/09/23 00:52:11;;;;;;;26.27;19.17;;;9.40;99.90;;;;;;5063300;28;20584;-69
2021/09/23 00:54:36;;;;;;;26.87;18.20;;;9.40;99.90;;;;;;5064885;28;20178;-71
2021/09/23 00:57:02;;;;;;;24.87;18.00;;;9.40;99.90;;;;;;5063528;28;20169;-69
2021/09/23 00:59:28;;;;;;;26.80;19.03;;;9.40;99.90;;;;;;5046187;28;20282;-69
2021/09/23 01:01:54;;;;;;;26.70;18.23;;;9.40;99.90;;;;;;5063196;28;20649;-69
2021/09/23 01:04:19;;;;;;;26.63;19.60;;;9.40;99.90;;;;;;5063738;28;20242;-69
2021/09/23 01:06:50;;;;;;;27.60;18.53;;;9.40;99.90;;;;;;5046126;28;20185;-68
2021/09/23 01:09:16;;;;;;;30.10;18.77;;;9.40;99.90;;;;;;5063830;28;20205;-70
2021/09/23 01:11:42;;;;;;;28.83;18.27;;;9.40;99.90;;;;;;5062916;28;20198;-69
2021/09/23 01:14:11;;;;;;;25.77;17.93;;;9.40;99.90;;;;;;5046092;28;20174;-71
2021/09/23 01:16:37;;;;;;;27.73;19.83;;;9.40;99.90;;;;;;5045929;28;20180;-68
2021/09/23 01:19:03;;;;;;;30.20;19.57;;;9.50;99.90;;;;;;5063776;28;20395;-69
2021/09/23 01:21:29;;;;;;;26.60;18.50;;;9.50;99.90;;;;;;5063216;28;20579;-69
2021/09/23 01:23:55;;;;;;;32.70;20.80;;;9.50;99.90;;;;;;5063757;28;20209;-68
2021/09/23 01:26:32;;;;;;;28.43;18.00;;;9.40;99.90;;;;;;5063857;28;20190;-69
2021/09/23 01:28:58;;;;;;;28.80;19.07;;;9.50;99.90;;;;;;5063725;28;20258;-70
2021/09/23 01:31:24;;;;;;;28.90;17.53;;;9.40;99.90;;;;;;5062481;28;20292;-70
2021/09/23 01:33:51;;;;;;;24.50;17.33;;;9.30;99.90;;;;;;5045175;28;20265;-69
2021/09/23 01:36:16;;;;;;;22.47;16.53;;;9.30;99.90;;;;;;5063574;28;20205;-67
2021/09/23 01:38:43;;;;;;;26.17;16.67;;;9.20;99.90;;;;;;5063735;28;20679;-69
2021/09/23 01:41:10;;;;;;;25.23;17.43;;;9.10;99.90;;;;;;5063104;28;20624;-67
2021/09/23 01:43:35;;;;;;;23.90;17.00;;;9.10;99.90;;;;;;5044636;28;20185;-69
2021/09/23 01:46:01;;;;;;;20.53;15.93;;;9.00;99.90;;;;;;5063408;28;20227;-67
2021/09/23 01:48:26;;;;;;;20.60;15.47;;;9.00;99.90;;;;;;5063124;28;20189;-68
2021/09/23 01:50:52;;;;;;;25.07;16.07;;;8.90;99.90;;;;;;5063448;28;20280;-69
2021/09/23 01:53:17;;;;;;;23.43;16.13;;;8.90;99.90;;;;;;5062326;28;20264;-68
2021/09/23 01:55:43;;;;;;;22.97;15.50;;;8.80;99.90;;;;;;5063556;28;20200;-69
2021/09/23 01:58:09;;;;;;;23.43;16.33;;;8.80;99.90;;;;;;5062001;28;20176;-70
2021/09/23 02:00:34;;;;;;;24.63;16.63;;;8.70;99.90;;;;;;5063265;28;20209;-67
2021/09/23 02:03:00;;;;;;;23.30;16.27;;;8.70;99.90;;;;;;5063288;28;20501;-70
2021/09/23 02:05:26;;;;;;;22.83;15.40;;;8.80;99.90;;;;;;5063325;28;20186;-70
2021/09/23 02:07:51;;;;;;;22.93;15.87;;;8.70;99.90;;;;;;5063256;28;20244;-69
2021/09/23 02:10:17;;;;;;;20.93;14.90;;;8.60;99.90;;;;;;5061486;28;20623;-70
2021/09/23 02:12:43;;;;;;;23.00;15.93;;;8.60;99.90;;;;;;5063032;28;20181;-70
2021/09/23 02:15:09;;;;;;;23.87;16.50;;;8.60;99.90;;;;;;5063069;28;20616;-70
2021/09/23 02:17:35;;;;;;;24.20;16.67;;;8.50;99.90;;;;;;5063013;28;20193;-70
2021/09/23 02:20:01;;;;;;;25.60;16.57;;;8.50;99.90;;;;;;5062889;28;20197;-68
2021/09/23 02:22:27;;;;;;;24.03;16.03;;;8.50;99.90;;;;;;5062541;28;20201;-69
2021/09/23 02:24:53;;;;;;;24.67;17.00;;;8.40;99.90;;;;;;5062582;28;20192;-67
2021/09/23 02:27:19;;;;;;;23.67;16.10;;;8.40;99.90;;;;;;5062573;28;20189;-69
2021/09/23 02:29:45;;;;;;;23.03;16.07;;;8.50;99.90;;;;;;5063014;28;20210;-67
2021/09/23 02:32:11;;;;;;;25.90;17.43;;;8.50;99.90;;;;;;5062060;28;20194;-69
2021/09/23 02:34:37;;;;;;;25.20;17.27;;;8.40;99.90;;;;;;5063204;28;20231;-71
2021/09/23 02:37:03;;;;;;;24.23;17.20;;;8.40;99.90;;;;;;5062525;28;20178;-69
2021/09/23 02:39:28;;;;;;;26.00;17.63;;;8.40;99.90;;;;;;5062687;28;20189;-69
2021/09/23 02:41:54;;;;;;;24.80;17.33;;;8.40;99.90;;;;;;5061823;28;20246;-68
2021/09/23 02:44:20;;;;;;;24.73;17.40;;;8.40;99.90;;;;;;5062811;28;20197;-67
2021/09/23 02:46:46;;;;;;;24.93;16.60;;;8.30;99.90;;;;;;5063300;28;20186;-69
2021/09/23 02:49:11;;;;;;;24.83;16.93;;;8.30;99.90;;;;;;5062424;28;20489;-70
2021/09/23 02:51:38;;;;;;;25.43;17.00;;;8.30;99.90;;;;;;5062267;28;20200;-66
2021/09/23 02:54:03;;;;;;;27.93;18.27;;;8.20;99.90;;;;;;5062400;28;20307;-66
2021/09/23 02:56:29;;;;;;;24.53;16.77;;;8.20;99.90;;;;;;5062730;28;20180;-66
2021/09/23 02:58:55;;;;;;;26.13;17.83;;;8.30;99.90;;;;;;5062760;28;20199;-71
2021/09/23 03:01:22;;;;;;;23.23;17.37;;;8.20;99.90;;;;;;5064496;28;20206;-69
2021/09/23 03:03:48;;;;;;;25.37;17.37;;;8.20;99.90;;;;;;5065863;28;20190;-67
2021/09/23 03:06:13;;;;;;;26.87;18.17;;;8.20;99.90;;;;;;5066223;28;20976;-70
2021/09/23 03:08:39;;;;;;;27.07;17.73;;;8.20;99.90;;;;;;5066383;28;20174;-69
2021/09/23 03:11:05;;;;;;;30.30;18.40;;;8.30;99.90;;;;;;5064584;28;20212;-71
2021/09/23 03:13:31;;;;;;;28.47;18.80;;;8.20;99.90;;;;;;5065485;28;20178;-71
2021/09/23 03:15:57;;;;;;;27.47;18.93;;;8.20;99.90;;;;;;5065923;28;20239;-68
2021/09/23 03:18:22;;;;;;;26.23;17.57;;;8.20;99.90;;;;;;5066001;28;20174;-69
2021/09/23 03:20:48;;;;;;;29.17;18.37;;;8.10;99.90;;;;;;5065735;28;20208;-66
2021/09/23 03:23:14;;;;;;;26.57;18.30;;;8.10;99.90;;;;;;5065680;28;20201;-69
2021/09/23 03:25:40;;;;;;;30.53;19.80;;;8.20;99.90;;;;;;5066233;28;20608;-70
2021/09/23 03:28:07;;;;;;;30.43;19.30;;;8.20;99.90;;;;;;5065629;28;20579;-70
2021/09/23 03:30:34;;;;;;;27.57;19.27;;;8.30;99.90;;;;;;5065721;28;20239;-69
2021/09/23 03:33:05;;;;;;;31.73;19.53;;;8.30;99.90;;;;;;5064759;28;20229;-66
2021/09/23 03:35:32;;;;;;;29.07;18.83;;;8.30;99.90;;;;;;5065682;28;20178;-67
2021/09/23 03:37:58;;;;;;;30.27;19.23;;;8.30;99.90;;;;;;5065815;28;20184;-68
2021/09/23 03:40:25;;;;;;;29.23;18.70;;;8.30;99.90;;;;;;5065557;28;20198;-67
2021/09/23 03:42:50;;;;;;;32.40;20.60;;;8.30;99.90;;;;;;5065224;28;20173;-69
2021/09/23 03:45:17;;;;;;;30.90;20.30;;;8.30;99.90;;;;;;5065114;28;20534;-71
2021/09/23 03:47:42;;;;;;;30.60;20.43;;;8.30;99.90;;;;;;5066173;28;20174;-69
2021/09/23 03:50:09;;;;;;;32.50;20.47;;;8.40;99.90;;;;;;5064925;28;20703;-70
2021/09/23 03:52:35;;;;;;;35.63;21.10;;;8.50;99.90;;;;;;5064980;28;20268;-69
2021/09/23 03:55:01;;;;;;;32.90;21.50;;;8.60;99.90;;;;;;5065103;28;20265;-69
2021/09/23 03:57:27;;;;;;;32.00;20.77;;;8.60;99.90;;;;;;5065488;28;20249;-70
2021/09/23 03:59:53;;;;;;;30.93;20.87;;;8.50;99.90;;;;;;5065257;28;20189;-68
2021/09/23 04:02:18;;;;;;;29.53;19.93;;;8.50;99.90;;;;;;5064140;28;20213;-70
2021/09/23 04:04:44;;;;;;;31.27;20.93;;;8.50;99.90;;;;;;5065409;28;20564;-68
2021/09/23 04:07:10;;;;;;;30.80;20.50;;;8.40;99.90;;;;;;5064812;28;20188;-66
2021/09/23 04:09:35;;;;;;;32.23;20.57;;;8.40;99.90;;;;;;5065159;28;20272;-67
2021/09/23 04:12:01;;;;;;;30.57;20.30;;;8.30;99.90;;;;;;5064066;28;20980;-68
2021/09/23 04:14:27;;;;;;;26.80;18.77;;;8.30;99.90;;;;;;5046841;28;20177;-67
2021/09/23 04:16:52;;;;;;;30.13;20.37;;;8.30;99.90;;;;;;5064839;28;20564;-69
2021/09/23 04:19:18;;;;;;;29.90;20.17;;;8.20;99.90;;;;;;5064302;28;20178;-69
2021/09/23 04:21:44;;;;;;;30.80;21.37;;;8.30;99.90;;;;;;5064099;28;20224;-70
2021/09/23 04:24:10;;;;;;;31.97;20.03;;;8.30;99.90;;;;;;5064064;28;20289;-67
2021/09/23 04:26:35;;;;;;;30.20;20.33;;;8.30;99.90;;;;;;5064600;28;20185;-70
2021/09/23 04:29:02;;;;;;;29.53;20.40;;;8.30;99.90;;;;;;5064471;28;20206;-70
2021/09/23 04:31:27;;;;;;;40.03;23.27;;;8.20;99.90;;;;;;5064134;28;20193;-71
2021/09/23 04:33:53;;;;;;;46.27;25.17;;;8.20;99.90;;;;;;5064287;28;20180;-70
2021/09/23 04:36:19;;;;;;;43.10;25.63;;;8.20;99.90;;;;;;5064787;28;20633;-70
2021/09/23 04:38:44;;;;;;;41.33;24.17;;;8.30;99.90;;;;;;5046416;28;20181;-69
2021/09/23 04:41:11;;;;;;;40.03;23.73;;;8.20;99.90;;;;;;5046059;28;20434;-70
2021/09/23 04:43:39;;;;;;;36.27;22.33;;;8.20;99.90;;;;;;5045554;28;21068;-69
2021/09/23 04:46:04;;;;;;;35.80;22.57;;;8.30;99.90;;;;;;5064313;28;20535;-69
2021/09/23 04:48:30;;;;;;;36.80;23.40;;;8.20;99.90;;;;;;5064084;28;20176;-70
2021/09/23 04:50:56;;;;;;;36.60;23.20;;;8.20;99.90;;;;;;5064151;28;20204;-67
2021/09/23 04:53:21;;;;;;;37.80;23.43;;;8.20;99.90;;;;;;5063598;28;20170;-71
2021/09/23 04:55:47;;;;;;;37.57;22.73;;;8.30;99.90;;;;;;5064275;28;20616;-67
2021/09/23 04:58:13;;;;;;;35.30;21.63;;;8.30;99.90;;;;;;5063650;28;20188;-69
2021/09/23 05:00:38;;;;;;;35.67;22.43;;;8.30;99.90;;;;;;5063658;28;20241;-66
2021/09/23 05:03:04;;;;;;;34.10;22.13;;;8.40;99.90;;;;;;5062953;28;20185;-68
2021/09/23 05:05:30;;;;;;;40.53;22.80;;;8.40;99.90;;;;;;5064432;28;20186;-68
2021/09/23 05:07:56;;;;;;;36.70;23.57;;;8.40;99.90;;;;;;5063775;28;20759;-71
2021/09/23 05:10:21;;;;;;;38.03;23.40;;;8.50;99.90;;;;;;5063708;28;20530;-68
2021/09/23 05:12:47;;;;;;;39.13;22.10;;;8.50;99.90;;;;;;5063615;28;20207;-69
2021/09/23 05:15:13;;;;;;;32.10;21.40;;;8.60;99.90;;;;;;5064009;28;20261;-70
2021/09/23 05:17:39;;;;;;;37.30;22.63;;;8.60;99.90;;;;;;5063487;28;20243;-66
2021/09/23 05:20:07;;;;;;;31.97;22.73;;;8.70;99.90;;;;;;5045710;28;20956;-67
2021/09/23 05:22:32;;;;;;;36.47;21.97;;;8.80;99.90;;;;;;5063232;28;20536;-72
2021/09/23 05:24:58;;;;;;;32.10;21.83;;;8.80;99.90;;;;;;5063208;28;20182;-69
2021/09/23 05:27:24;;;;;;;32.23;21.23;;;8.90;99.90;;;;;;5063613;28;20190;-68
2021/09/23 05:29:49;;;;;;;29.70;20.03;;;8.90;99.90;;;;;;5063337;28;20951;-69
2021/09/23 05:32:15;;;;;;;33.37;19.37;;;8.90;99.90;;;;;;5063083;28;20280;-69
2021/09/23 05:34:41;;;;;;;30.27;20.03;;;9.00;99.90;;;;;;5063706;28;20315;-66
2021/09/23 05:37:07;;;;;;;29.90;20.43;;;9.20;99.90;;;;;;5063821;28;21123;-66
2021/09/23 05:39:32;;;;;;;29.63;20.57;;;9.30;99.90;;;;;;5063219;28;20174;-68
2021/09/23 05:41:58;;;;;;;30.83;19.33;;;9.40;99.90;;;;;;5062526;28;20217;-69
2021/09/23 05:44:24;;;;;;;28.83;19.33;;;9.50;99.90;;;;;;5045472;28;20191;-69
2021/09/23 05:46:54;;;;;;;26.97;18.33;;;9.60;99.90;;;;;;5063469;28;20536;-70
2021/09/23 05:49:21;;;;;;;30.40;18.83;;;9.70;99.90;;;;;;5063327;28;20796;-69
2021/09/23 05:51:47;;;;;;;33.67;22.17;;;9.70;99.90;;;;;;5063146;28;20189;-70
2021/09/23 05:54:13;;;;;;;27.63;19.87;;;9.90;99.90;;;;;;5063117;28;20173;-67
2021/09/23 05:56:39;;;;;;;29.17;20.03;;;10.00;99.90;;;;;;5064109;28;20506;-70
2021/09/23 05:59:05;;;;;;;27.73;18.27;;;10.10;99.90;;;;;;5063257;28;20174;-67
2021/09/23 06:01:30;;;;;;;29.03;18.93;;;10.20;99.90;;;;;;5062659;28;20240;-68
2021/09/23 06:03:56;;;;;;;23.00;17.37;;;10.30;99.90;;;;;;5063045;28;20192;-67
2021/09/23 06:06:22;;;;;;;24.80;16.33;;;10.50;99.90;;;;;;5063321;28;21185;-67
2021/09/23 06:08:48;;;;;;;24.77;16.38;;;10.70;99.90;;;;;;5063259;28;20259;-68
2021/09/23 06:11:13;;;;;;;24.10;15.60;;;10.90;99.90;;;;;;5062742;28;20216;-70
2021/09/23 06:13:41;;;;;;;22.95;15.75;;;11.10;99.90;;;;;;5062360;28;20197;-68
2021/09/23 06:16:07;;;;;;;22.35;15.15;;;11.20;99.90;;;;;;5063040;28;20192;-66
2021/09/23 06:18:32;;;;;;;23.27;15.30;;;11.30;99.90;;;;;;5063312;28;20731;-67
2021/09/23 06:20:58;;;;;;;19.33;14.27;;;11.40;99.90;;;;;;5063020;28;20522;-69
2021/09/23 06:23:24;;;;;;;22.42;14.90;;;11.40;99.90;;;;;;5059622;28;20178;-69
2021/09/23 06:25:49;;;;;;;20.33;15.93;;;11.60;99.90;;;;;;5063207;28;20641;-68
2021/09/23 06:28:15;;;;;;;20.05;14.25;;;11.60;99.90;;;;;;5062459;28;20196;-66
2021/09/23 06:30:41;;;;;;;21.17;14.48;;;11.70;99.90;;;;;;5062711;28;20645;-70
2021/09/23 06:33:07;;;;;;;19.42;13.23;;;11.90;99.90;;;;;;5043600;28;20170;-68
2021/09/23 06:35:32;;;;;;;20.52;13.95;;;12.00;99.90;;;;;;5064409;28;20174;-70
2021/09/23 06:37:58;;;;;;;22.35;13.10;;;12.10;99.90;;;;;;5066411;28;20222;-66
2021/09/23 06:40:24;;;;;;;17.77;12.15;;;12.20;99.90;;;;;;5066269;28;20232;-67
2021/09/23 06:42:50;;;;;;;20.00;12.90;;;12.40;99.90;;;;;;5066183;28;20193;-69
2021/09/23 06:45:16;;;;;;;18.98;12.15;;;12.60;99.90;;;;;;5065837;28;20291;-69
2021/09/23 06:47:42;;;;;;;16.98;12.32;;;12.70;99.90;;;;;;5066888;28;21241;-67
2021/09/23 06:50:09;;;;;;;18.52;11.55;;;12.80;99.90;;;;;;5066139;28;20209;-70
2021/09/23 06:52:35;;;;;;;15.65;11.05;;;13.00;99.90;;;;;;5065959;28;20663;-70
2021/09/23 06:55:01;;;;;;;17.08;11.35;;;13.10;99.90;;;;;;5066016;28;20214;-71
2021/09/23 06:57:26;;;;;;;16.48;11.02;;;13.20;99.90;;;;;;5066264;28;20173;-67
2021/09/23 06:59:52;;;;;;;13.38;10.30;;;13.30;99.90;;;;;;5066270;28;20574;-70
2021/09/23 07:02:18;;;;;;;17.80;10.57;;;13.50;99.90;;;;;;5064715;28;20210;-68
2021/09/23 07:04:43;;;;;;;15.50;10.18;;;13.50;99.90;;;;;;5065484;28;20185;-67
2021/09/23 07:07:09;;;;;;;12.55;9.18;;;13.50;99.90;;;;;;5064394;28;20181;-69
2021/09/23 07:09:35;;;;;;;12.68;8.45;;;13.50;99.90;;;;;;5065216;28;20609;-71
2021/09/23 07:12:01;;;;;;;11.27;8.55;;;13.60;99.90;;;;;;5064857;28;20238;-66
2021/09/23 07:14:27;;;;;;;11.80;8.18;;;13.70;99.90;;;;;;5066076;28;20178;-68
2021/09/23 07:16:53;;;;;;;11.48;8.40;;;13.90;99.90;;;;;;5065762;28;20166;-70
2021/09/23 07:19:18;;;;;;;10.65;8.40;;;14.00;99.90;;;;;;5065633;28;20544;-67
2021/09/23 07:21:44;;;;;;;12.77;8.60;;;14.20;99.90;;;;;;5064886;28;20521;-68
2021/09/23 07:24:10;;;;;;;10.30;7.43;;;14.50;99.90;;;;;;5046592;28;20280;-68
2021/09/23 07:26:35;;;;;;;9.90;7.78;;;14.60;99.90;;;;;;5065789;28;20189;-68
2021/09/23 07:29:01;;;;;;;11.38;7.20;;;14.80;99.90;;;;;;5065879;28;20689;-67
2021/09/23 07:31:27;;;;;;;9.07;6.70;;;14.90;99.90;;;;;;5065410;28;20197;-68
2021/09/23 07:33:52;;;;;;;9.63;6.65;;;14.90;99.90;;;;;;5065395;28;20186;-70
2021/09/23 07:36:19;;;;;;;10.55;6.95;;;15.00;99.90;;;;;;5066207;28;20659;-68
2021/09/23 07:38:45;;;;;;;8.63;6.65;;;15.00;99.90;;;;;;5064268;28;20659;-70
2021/09/23 07:41:11;;;;;;;8.93;6.07;;;14.90;99.90;;;;;;5065569;28;20217;-70
2021/09/23 07:43:37;;;;;;;9.38;6.68;;;14.90;99.90;;;;;;5065065;28;20542;-70
2021/09/23 07:46:02;;;;;;;10.52;6.68;;;14.80;99.90;;;;;;5065236;28;20177;-70
2021/09/23 07:48:28;;;;;;;9.20;6.05;;;14.80;99.90;;;;;;5065709;28;20270;-70
2021/09/23 07:50:54;;;;;;;11.30;6.40;;;15.00;99.90;;;;;;5065374;28;20497;-69
2021/09/23 07:53:20;;;;;;;8.38;6.07;;;15.10;99.90;;;;;;5065084;28;20258;-68
2021/09/23 07:55:47;;;;;;;10.32;6.38;;;15.10;99.90;;;;;;5065355;28;20923;-69
2021/09/23 07:58:13;;;;;;;8.80;6.13;;;15.30;99.90;;;;;;5047081;28;20527;-70
2021/09/23 08:00:38;;;;;;;7.22;5.80;;;15.50;99.90;;;;;;5065157;28;20204;-67
2021/09/23 08:03:04;;;;;;;8.82;5.53;;;15.60;99.90;;;;;;5064642;28;20189;-66
2021/09/23 08:05:30;;;;;;;8.68;5.60;;;15.80;99.90;;;;;;5065327;28;20189;-66
2021/09/23 08:07:57;;;;;;;6.15;5.35;;;16.00;99.90;;;;;;5047236;28;20193;-70
2021/09/23 08:10:22;;;;;;;7.03;5.20;;;15.90;99.90;;;;;;5064982;28;20278;-67
2021/09/23 08:12:48;;;;;;;8.45;6.05;;;15.90;99.90;;;;;;5064959;28;20244;-70
2021/09/23 08:15:14;;;;;;;6.28;5.32;;;15.90;99.90;;;;;;5065225;28;20178;-68
2021/09/23 08:17:39;;;;;;;8.55;5.65;;;15.80;99.90;;;;;;5065188;28;20252;-70
2021/09/23 08:20:06;;;;;;;8.10;5.40;;;15.90;99.90;;;;;;5064533;28;20656;-67
2021/09/23 08:22:32;;;;;;;7.63;5.72;;;15.80;99.90;;;;;;5064018;28;20271;-69
2021/09/23 08:24:57;;;;;;;6.80;4.57;;;15.90;99.90;;;;;;5064584;28;20249;-71
2021/09/23 08:27:23;;;;;;;6.05;4.78;;;16.00;99.90;;;;;;5064666;28;20638;-69
2021/09/23 08:29:48;;;;;;;7.00;4.28;;;16.20;99.90;;;;;;5064563;28;20586;-69
2021/09/23 08:32:19;;;;;;;13.57;4.88;;;16.30;99.90;;;;;;5063873;28;20251;-70
2021/09/23 08:34:45;;;;;;;6.43;4.68;;;16.40;99.90;;;;;;5065015;28;20336;-68
2021/09/23 08:37:11;;;;;;;7.00;4.65;;;16.30;99.90;;;;;;5064294;28;20637;-69
2021/09/23 08:39:37;;;;;;;6.97;4.53;;;16.30;99.90;;;;;;5064648;28;20777;-67
2021/09/23 08:42:03;;;;;;;5.53;3.80;;;16.40;99.90;;;;;;5063659;28;20209;-69
2021/09/23 08:44:30;;;;;;;6.00;4.65;;;16.50;99.90;;;;;;5064375;28;20230;-70
2021/09/23 08:46:56;;;;;;;6.05;4.50;;;16.70;99.90;;;;;;5064717;28;20651;-69
2021/09/23 08:49:21;;;;;;;5.78;4.13;;;16.90;99.90;;;;;;5063410;28;20615;-69
2021/09/23 08:51:47;;;;;;;6.28;4.85;;;17.00;99.90;;;;;;5063109;28;20186;-67
2021/09/23 08:54:13;;;;;;;7.68;4.60;;;17.10;99.90;;;;;;5062873;28;20193;-69
2021/09/23 08:56:38;;;;;;;7.25;4.63;;;17.10;99.90;;;;;;5063335;28;20181;-68
2021/09/23 08:59:04;;;;;;;7.55;3.88;;;17.00;99.90;;;;;;5062288;28;20531;-68
2021/09/23 09:01:49;;;;;;;5.70;4.28;;;17.10;99.90;;;;;;5062588;28;20208;-69
2021/09/23 09:04:15;;;;;;;5.63;4.60;;;17.30;99.90;;;;;;5062855;28;20185;-68
2021/09/23 09:07:10;;;;;;;5.35;4.32;;;17.30;99.90;;;;;;5063974;28;20937;-67
2021/09/23 09:09:35;;;;;;;5.25;4.13;;;17.30;99.90;;;;;;5054338;28;20224;-68
2021/09/23 09:12:01;;;;;;;6.78;4.60;;;17.50;99.90;;;;;;5062554;28;20201;-66
2021/09/23 09:14:29;;;;;;;4.80;4.05;;;17.50;99.90;;;;;;5045689;28;20256;-70
2021/09/23 09:17:03;;;;;;;5.70;4.30;;;17.60;99.90;;;;;;5064017;28;20174;-69
2021/09/23 09:19:59;;;;;;;4.40;3.80;;;17.40;99.90;;;;;;5062660;28;20196;-67
2021/09/23 09:22:27;;;;;;;5.35;4.15;;;17.40;99.90;;;;;;5044523;28;20297;-68
2021/09/23 09:25:02;;;;;;;5.50;4.25;;;17.30;99.90;;;;;;5043024;28;20178;-68
2021/09/23 09:27:37;;;;;;;5.65;4.20;;;17.30;99.90;;;;;;5061957;28;20536;-66
2021/09/23 09:30:09;;;;;;;6.78;4.20;;;17.40;99.90;;;;;;5062136;28;20224;-68
2021/09/23 09:32:36;;;;;;;6.95;4.03;;;17.50;99.90;;;;;;5044430;28;20224;-70
2021/09/23 09:35:01;;;;;;;9.60;4.00;;;17.70;99.90;;;;;;5045279;28;20523;-67
2021/09/23 09:37:31;;;;;;;5.25;4.22;;;17.80;99.90;;;;;;5063176;28;20177;-68
2021/09/23 09:39:58;;;;;;;6.03;3.58;;;17.80;99.90;;;;;;5063300;28;20226;-69
2021/09/23 09:42:27;;;;;;;4.97;4.38;;;17.70;99.90;;;;;;5044044;28;20213;-70
2021/09/23 09:44:58;;;;;;;6.30;4.07;;;17.80;99.90;;;;;;5045291;28;20178;-67
2021/09/23 09:47:29;;;;;;;5.88;3.72;;;17.80;99.90;;;;;;5062815;28;20519;-68
2021/09/23 09:49:56;;;;;;;8.27;4.03;;;18.10;99.90;;;;;;5063196;28;20193;-66
2021/09/23 09:52:31;;;;;;;4.80;3.65;;;18.30;99.90;;;;;;5061249;28;20197;-70
2021/09/23 09:55:08;;;;;;;6.90;4.07;;;18.50;99.90;;;;;;5062596;28;20196;-70
2021/09/23 09:57:43;;;;;;;5.10;3.60;;;18.50;99.90;;;;;;5063587;28;20192;-69
2021/09/23 10:00:10;;;;;;;4.28;3.33;;;18.50;99.90;;;;;;5063264;28;20272;-69
2021/09/23 10:02:36;;;;;;;4.20;3.65;;;18.50;99.90;;;;;;5060884;28;20200;-69
2021/09/23 10:05:03;;;;;;;5.25;3.80;;;18.60;99.90;;;;;;5062963;28;20272;-69
2021/09/23 10:07:32;;;;;;;4.93;3.50;;;18.60;99.90;;;;;;5063202;28;20577;-68
2021/09/23 10:09:58;;;;;;;4.55;3.30;;;18.60;99.90;;;;;;5064673;28;20209;-70
2021/09/23 10:12:25;;;;;;;5.90;3.55;;;18.70;99.90;;;;;;5066585;28;20196;-69
2021/09/23 10:14:51;;;;;;;8.95;3.28;;;18.80;99.90;;;;;;5066826;28;20172;-67
2021/09/23 10:17:17;;;;;;;5.00;3.33;;;18.90;99.90;;;;;;5067273;28;20447;-69
2021/09/23 10:19:43;;;;;;;3.53;2.80;;;19.00;99.90;;;;;;5065835;28;20619;-69
2021/09/23 10:22:14;;;;;;;5.25;2.95;;;19.00;99.90;;;;;;5066300;28;20206;-68
2021/09/23 10:24:44;;;;;;;3.38;2.65;;;19.10;99.90;;;;;;5067107;28;20185;-68
2021/09/23 10:29:57;;;;;;;7.00;3.00;;;19.50;99.90;;;;;;5067208;28;20212;-68
2021/09/23 10:32:22;;;;;;;2.63;2.30;;;19.60;99.90;;;;;;5066405;28;20458;-68
2021/09/23 10:34:51;;;;;;;4.22;2.88;;;19.70;99.90;;;;;;5066919;28;20262;-66
2021/09/23 10:37:18;;;;;;;4.13;2.20;;;19.90;99.90;;;;;;5066900;28;20209;-70
2021/09/23 10:39:45;;;;;;;6.32;2.60;;;20.10;99.90;;;;;;5066717;28;20181;-67
2021/09/23 10:42:21;;;;;;;3.50;2.20;;;19.90;99.90;;;;;;5065993;28;20219;-70
2021/09/23 10:44:52;;;;;;;3.65;2.40;;;19.70;99.90;;;;;;5067225;28;20666;-69
2021/09/23 10:47:27;;;;;;;4.05;2.10;;;19.80;99.90;;;;;;5066657;28;20190;-69
2021/09/23 10:49:53;;;;;;;3.13;1.90;;;19.80;99.90;;;;;;5066539;28;20269;-69
2021/09/23 10:52:25;;;;;;;2.55;1.98;;;19.90;99.90;;;;;;5047680;28;20199;-69
2021/09/23 10:54:52;;;;;;;4.57;1.95;;;20.00;99.90;;;;;;5066468;28;20198;-67
2021/09/23 10:57:19;;;;;;;3.17;2.38;;;20.10;99.90;;;;;;5066413;28;20449;-68
2021/09/23 10:59:48;;;;;;;3.38;1.70;;;20.00;99.90;;;;;;5048462;28;20545;-70
2021/09/23 11:02:24;;;;;;;2.67;1.83;;;20.10;99.90;;;;;;5065887;28;20201;-66
2021/09/23 11:04:55;;;;;;;1.95;1.65;;;20.00;99.90;;;;;;5066317;28;20503;-69
2021/09/23 11:07:23;;;;;;;4.10;1.85;;;19.80;99.90;;;;;;5066352;28;20554;-67
2021/09/23 11:10:10;;;;;;;2.70;1.83;;;19.60;99.90;;;;;;5065410;28;20291;-65
2021/09/23 11:12:38;;;;;;;5.22;1.95;;;19.60;99.90;;;;;;5047523;28;20526;-67
2021/09/23 11:15:06;;;;;;;4.68;2.00;;;19.60;99.90;;;;;;5066322;28;20197;-70
2021/09/23 11:17:32;;;;;;;3.00;1.70;;;19.60;99.90;;;;;;5066193;28;20234;-67
2021/09/23 11:20:13;;;;;;;2.67;1.80;;;19.60;99.90;;;;;;5066467;28;20260;-68
2021/09/23 11:22:40;;;;;;;3.28;1.70;;;19.80;99.90;;;;;;5064414;28;20186;-68
2021/09/23 11:25:11;;;;;;;2.78;1.83;;;20.10;99.90;;;;;;5065929;28;20216;-67
2021/09/23 11:27:38;;;;;;;1.40;1.27;;;20.30;99.90;;;;;;5066064;28;20278;-67
2021/09/23 11:30:10;;;;;;;1.60;1.27;;;20.30;99.90;;;;;;5065906;28;20192;-69
2021/09/23 11:33:06;;;;;;;1.90;1.17;;;20.40;99.90;;;;;;5065283;28;20177;-66
2021/09/23 11:35:34;;;;;;;4.80;1.50;;;20.50;99.90;;;;;;5066096;28;20530;-68
2021/09/23 11:38:01;;;;;;;3.17;1.60;;;20.50;99.90;;;;;;5065965;28;20260;-69
2021/09/23 11:40:29;;;;;;;3.50;1.83;;;20.60;99.90;;;;;;5065422;28;20537;-69
2021/09/23 11:42:56;;;;;;;1.50;1.33;;;20.60;99.90;;;;;;5064909;28;20656;-69
2021/09/23 11:45:25;;;;;;;4.85;1.33;;;20.60;99.90;;;;;;5066095;28;20229;-70
2021/09/23 11:47:55;;;;;;;2.53;1.40;;;20.80;99.90;;;;;;5047708;28;20181;-70
2021/09/23 11:50:31;;;;;;;1.98;1.55;;;20.90;99.90;;;;;;5065542;28;20305;-66
2021/09/23 11:53:02;;;;;;;2.92;1.60;;;20.90;99.90;;;;;;5064815;28;20386;-70
2021/09/23 11:55:28;;;;;;;3.63;1.33;;;21.10;99.90;;;;;;5065944;28;20174;-66
2021/09/23 11:58:06;;;;;;;1.60;1.42;;;21.10;99.90;;;;;;5065676;28;20537;-69
2021/09/23 12:00:34;;;;;;;1.25;1.15;;;21.20;99.90;;;;;;5064907;28;20267;-69
2021/09/23 12:03:00;;;;;;;2.55;1.30;;;21.20;99.90;;;;;;5064875;28;20268;-70
2021/09/23 12:05:31;;;;;;;2.80;1.30;;;21.20;99.90;;;;;;5065231;28;20338;-66
2021/09/23 12:08:04;;;;;;;3.58;1.40;;;21.10;99.90;;;;;;5065057;28;20645;-69
2021/09/23 12:10:30;;;;;;;3.55;1.27;;;21.00;99.90;;;;;;5064655;28;20216;-67
2021/09/23 12:12:57;;;;;;;1.65;1.27;;;21.00;99.90;;;;;;5064470;28;20185;-68
2021/09/23 12:15:23;;;;;;;2.92;1.83;;;20.90;99.90;;;;;;5065295;28;20169;-68
2021/09/23 12:17:57;;;;;;;3.60;1.60;;;21.00;99.90;;;;;;5065077;28;20184;-69
2021/09/23 12:20:39;;;;;;;3.92;1.98;;;21.10;99.90;;;;;;5064560;28;20182;-69
2021/09/23 12:23:23;;;;;;;5.03;1.58;;;21.10;99.90;;;;;;5061916;28;20196;-68
2021/09/23 12:26:05;;;;;;;2.50;2.08;;;21.00;99.90;;;;;;5064355;28;20299;-66
2021/09/23 12:28:32;;;;;;;3.65;1.70;;;20.80;99.90;;;;;;5064067;28;20208;-69
2021/09/23 12:31:03;;;;;;;5.05;1.75;;;20.70;99.90;;;;;;5064714;28;20217;-67
2021/09/23 12:33:29;;;;;;;4.05;1.55;;;20.70;99.90;;;;;;5064149;28;20208;-69
2021/09/23 12:36:16;;;;;;;7.00;2.10;;;20.80;99.90;;;;;;5064350;28;20173;-66
2021/09/23 12:38:45;;;;;;;4.50;1.75;;;20.80;99.90;;;;;;5064709;28;20174;-68
2021/09/23 12:41:23;;;;;;;3.85;1.65;;;20.80;99.90;;;;;;5063698;28;20224;-69
2021/09/23 12:44:03;;;;;;;2.47;1.80;;;20.80;99.90;;;;;;5064550;28;20193;-68
2021/09/23 12:46:30;;;;;;;5.90;1.85;;;20.80;99.90;;;;;;5064355;28;20181;-71